createdAt,value
2022-11-28T00:04:42.535Z,65.90
2022-11-28T00:07:25.654Z,61.90
2022-11-28T00:10:10.022Z,62.90
2022-11-28T00:12:53.103Z,60.40
2022-11-28T00:15:36.061Z,64.90
2022-11-28T00:18:18.858Z,66.50
2022-11-28T00:23:49.919Z,63.20
2022-11-28T00:26:34.245Z,59.50
2022-11-28T00:29:17.575Z,69.20
2022-11-28T00:32:00.517Z,67.00
2022-11-28T00:34:43.590Z,63.80
2022-11-28T00:37:26.729Z,68.70
2022-11-28T00:42:52.620Z,71.90
2022-11-28T00:45:35.678Z,76.20
2022-11-28T00:48:18.417Z,70.10
2022-11-28T00:51:13.069Z,75.30
2022-11-28T00:53:58.083Z,72.20
2022-11-28T00:56:41.154Z,78.20
2022-11-28T00:59:24.166Z,70.50
2022-11-28T01:02:07.011Z,77.30
2022-11-28T01:04:49.923Z,69.10
2022-11-28T01:07:34.051Z,76.80
2022-11-28T01:10:17.444Z,79.30
2022-11-28T01:13:00.224Z,69.70
2022-11-28T01:18:25.727Z,69.60
2022-11-28T01:21:10.241Z,76.60
2022-11-28T01:23:53.673Z,76.20
2022-11-28T01:26:39.764Z,74.00
2022-11-28T01:29:22.788Z,81.10
2022-11-28T01:32:06.678Z,81.10
2022-11-28T01:34:49.494Z,78.80
2022-11-28T01:40:15.068Z,74.30
2022-11-28T01:45:40.674Z,73.60
2022-11-28T01:51:10.289Z,73.60
2022-11-28T01:53:53.911Z,80.00
2022-11-28T01:56:48.811Z,78.30
2022-11-28T01:59:37.400Z,80.80
2022-11-28T02:02:27.237Z,82.00
2022-11-28T02:05:10.475Z,73.50
2022-11-28T02:07:53.877Z,85.50
2022-11-28T02:10:59.842Z,77.50
2022-11-28T02:14:16.708Z,79.30
2022-11-28T02:17:14.932Z,81.40
2022-11-28T02:20:21.364Z,81.40
2022-11-28T02:23:27.314Z,87.10
2022-11-28T02:26:34.281Z,82.10
2022-11-28T02:29:51.523Z,80.30
2022-11-28T02:32:57.670Z,78.50
2022-11-28T02:36:08.277Z,76.70
2022-11-28T02:38:57.883Z,74.50
2022-11-28T02:41:50.469Z,80.80
2022-11-28T02:44:45.711Z,76.60
2022-11-28T02:47:38.961Z,93.00
2022-11-28T02:50:21.815Z,85.90
2022-11-28T02:55:53.779Z,88.90
2022-11-28T02:58:36.760Z,83.20
2022-11-28T03:01:24.665Z,81.40
2022-11-28T03:04:40.437Z,80.20
2022-11-28T03:08:00.278Z,73.80
2022-11-28T03:10:58.460Z,80.70
2022-11-28T03:13:50.495Z,77.40
2022-11-28T03:16:46.249Z,74.80
2022-11-28T03:19:39.812Z,82.70
2022-11-28T03:22:53.487Z,68.20
2022-11-28T03:25:47.726Z,75.50
2022-11-28T03:28:43.231Z,72.50
2022-11-28T03:31:45.444Z,70.60
2022-11-28T03:34:34.544Z,68.80
2022-11-28T03:37:23.206Z,69.70
2022-11-28T03:40:13.864Z,75.40
2022-11-28T03:43:05.704Z,74.10
2022-11-28T03:45:53.848Z,70.90
2022-11-28T03:48:42.200Z,73.20
2022-11-28T03:51:33.002Z,69.30
2022-11-28T03:54:23.167Z,69.40
2022-11-28T03:57:15.729Z,83.20
2022-11-28T04:00:04.149Z,75.90
2022-11-28T04:03:06.593Z,81.40
2022-11-28T04:06:04.492Z,79.00
2022-11-28T04:09:00.751Z,82.00
2022-11-28T04:11:54.426Z,77.00
2022-11-28T04:14:45.842Z,82.20
2022-11-28T04:17:38.148Z,73.00
2022-11-28T04:20:36.450Z,71.10
2022-11-28T04:23:21.781Z,70.20
2022-11-28T04:26:15.430Z,73.80
2022-11-28T04:29:00.343Z,64.50
2022-11-28T04:31:49.639Z,64.60
2022-11-28T04:34:35.410Z,70.00
2022-11-28T04:37:21.872Z,71.40
2022-11-28T04:40:09.086Z,68.90
2022-11-28T04:42:56.200Z,75.00
2022-11-28T04:45:51.038Z,66.40
2022-11-28T04:48:34.615Z,73.00
2022-11-28T04:51:20.482Z,67.00
2022-11-28T04:54:25.471Z,67.60
2022-11-28T04:57:38.323Z,69.50
2022-11-28T05:00:21.903Z,68.00
2022-11-28T05:03:06.145Z,64.70
2022-11-28T05:05:51.363Z,66.40
2022-11-28T05:08:35.309Z,65.70
2022-11-28T05:11:18.111Z,67.10
2022-11-28T05:16:43.714Z,66.60
2022-11-28T05:19:26.592Z,64.10
2022-11-28T05:22:09.532Z,67.30
2022-11-28T05:27:35.691Z,63.00
2022-11-28T05:30:18.518Z,67.00
2022-11-28T05:35:44.973Z,60.70
2022-11-28T05:38:27.775Z,63.30
2022-11-28T05:41:22.618Z,60.80
2022-11-28T05:44:05.564Z,65.50
2022-11-28T05:46:49.395Z,63.00
2022-11-28T05:49:32.188Z,60.40
2022-11-28T05:54:58.256Z,72.20
2022-11-28T05:57:41.125Z,63.40
2022-11-28T06:03:06.679Z,61.30
2022-11-28T06:08:32.346Z,61.60
2022-11-28T06:11:16.753Z,61.90
2022-11-28T06:14:00.202Z,64.70
2022-11-28T06:16:43.753Z,60.20
2022-11-28T06:19:27.647Z,62.80
2022-11-28T06:22:10.639Z,62.00
2022-11-28T06:27:37.413Z,62.90
2022-11-28T06:30:20.321Z,56.40
2022-11-28T06:33:04.265Z,60.10
2022-11-28T06:35:47.100Z,56.50
2022-11-28T06:38:31.152Z,62.40
2022-11-28T06:41:16.786Z,56.70
2022-11-28T06:44:00.959Z,61.90
2022-11-28T06:46:47.403Z,61.60
2022-11-28T06:49:30.284Z,56.70
2022-11-28T06:54:56.980Z,59.30
2022-11-28T06:57:39.812Z,58.50
2022-11-28T07:03:05.436Z,68.20
2022-11-28T07:05:48.580Z,61.50
2022-11-28T07:11:19.089Z,70.20
2022-11-28T07:14:02.724Z,58.00
2022-11-28T07:16:45.769Z,61.90
2022-11-28T07:19:29.623Z,62.70
2022-11-28T07:22:12.456Z,52.10
2022-11-28T07:27:37.816Z,56.10
2022-11-28T07:30:20.925Z,50.90
2022-11-28T07:33:03.966Z,59.70
2022-11-28T07:35:46.689Z,62.40
2022-11-28T07:41:13.968Z,55.90
2022-11-28T07:44:01.947Z,65.40
2022-11-28T07:46:46.444Z,63.00
2022-11-28T07:49:29.410Z,60.00
2022-11-28T07:52:12.136Z,51.40
2022-11-28T07:57:37.827Z,52.70
2022-11-28T08:05:50.187Z,49.90
2022-11-28T08:08:33.125Z,56.10
2022-11-28T08:11:17.792Z,53.80
2022-11-28T08:14:01.888Z,55.30
2022-11-28T08:16:47.538Z,50.80
2022-11-28T08:19:33.782Z,52.60
2022-11-28T08:22:18.056Z,51.00
2022-11-28T08:27:43.774Z,47.50
2022-11-28T08:30:27.117Z,50.80
2022-11-28T08:33:10.064Z,45.70
2022-11-28T08:38:37.325Z,44.30
2022-11-28T08:41:23.105Z,46.20
2022-11-28T08:44:06.024Z,46.00
2022-11-28T08:46:48.786Z,48.30
2022-11-28T08:52:14.281Z,46.40
2022-11-28T08:54:57.167Z,44.50
2022-11-28T08:57:39.929Z,48.90
2022-11-28T09:00:22.685Z,44.70
2022-11-28T09:03:05.735Z,42.40
2022-11-28T09:05:48.724Z,46.60
2022-11-28T09:08:32.540Z,46.00
2022-11-28T09:11:18.708Z,48.80
2022-11-28T09:14:01.711Z,47.00
2022-11-28T09:19:27.371Z,49.30
2022-11-28T09:24:52.810Z,45.20
2022-11-28T09:27:35.788Z,44.00
2022-11-28T09:30:22.450Z,49.10
2022-11-28T09:33:05.471Z,48.60
2022-11-28T09:35:48.209Z,45.40
2022-11-28T09:38:30.997Z,48.60
2022-11-28T09:44:26.304Z,50.00
2022-11-28T09:47:19.347Z,55.30
2022-11-28T09:53:20.950Z,46.60
2022-11-28T09:56:14.437Z,52.50
2022-11-28T09:59:00.816Z,62.60
2022-11-28T10:02:14.932Z,50.10
2022-11-28T10:05:32.648Z,49.80
2022-11-28T10:08:43.514Z,53.90
2022-11-28T10:11:44.646Z,50.90
2022-11-28T10:15:05.071Z,52.20
2022-11-28T10:18:03.095Z,51.30
2022-11-28T10:20:48.171Z,49.00
2022-11-28T10:23:44.350Z,51.50
2022-11-28T10:26:31.258Z,49.40
2022-11-28T10:29:24.116Z,51.10
2022-11-28T10:32:10.936Z,49.40
2022-11-28T10:35:06.177Z,52.80
2022-11-28T10:37:51.141Z,55.50
2022-11-28T10:40:33.855Z,51.50
2022-11-28T10:46:30.201Z,50.40
2022-11-28T10:49:35.102Z,46.70
2022-11-28T10:52:38.225Z,49.90
2022-11-28T10:58:27.327Z,51.70
2022-11-28T11:01:10.718Z,51.40
2022-11-28T11:03:53.585Z,50.30
2022-11-28T11:09:36.992Z,49.60
2022-11-28T11:12:34.458Z,49.60
2022-11-28T11:15:31.175Z,51.00
2022-11-28T11:18:26.426Z,49.00
2022-11-28T11:21:22.905Z,51.10
2022-11-28T11:24:32.204Z,50.00
2022-11-28T11:27:19.416Z,49.60
2022-11-28T11:30:17.067Z,48.30
2022-11-28T11:33:02.453Z,52.50
2022-11-28T11:35:49.067Z,49.10
2022-11-28T11:38:37.942Z,52.70
2022-11-28T11:41:29.812Z,47.50
2022-11-28T11:44:15.682Z,47.30
2022-11-28T11:47:10.681Z,47.10
2022-11-28T11:50:04.745Z,50.00
2022-11-28T11:53:10.406Z,48.60
2022-11-28T11:55:56.020Z,51.30
2022-11-28T11:58:46.760Z,48.90
2022-11-28T12:01:32.850Z,45.60
2022-11-28T12:04:44.958Z,48.30
2022-11-28T12:07:37.126Z,54.30
2022-11-28T12:10:35.773Z,51.90
2022-11-28T12:13:24.336Z,47.70
2022-11-28T12:16:35.582Z,51.00
2022-11-28T12:19:24.676Z,50.60
2022-11-28T12:22:08.517Z,50.60
2022-11-28T12:25:12.588Z,48.00
2022-11-28T12:28:28.975Z,49.60
2022-11-28T12:31:21.651Z,48.80
2022-11-28T12:34:16.256Z,50.10
2022-11-28T12:37:16.369Z,52.10
2022-11-28T12:40:18.849Z,43.50
2022-11-28T12:43:39.921Z,52.70
2022-11-28T12:46:41.579Z,49.00
2022-11-28T12:49:42.468Z,46.20
2022-11-28T12:52:35.916Z,52.10
2022-11-28T12:55:26.055Z,47.10
2022-11-28T12:58:30.359Z,49.60
2022-11-28T13:01:25.585Z,47.50
2022-11-28T13:04:26.723Z,52.60
2022-11-28T13:07:40.320Z,48.60
2022-11-28T13:10:26.905Z,54.70
2022-11-28T13:13:29.756Z,54.70
2022-11-28T13:16:27.249Z,52.80
2022-11-28T13:19:32.094Z,58.40
2022-11-28T13:22:23.730Z,61.10
2022-11-28T13:25:26.017Z,61.80
2022-11-28T13:28:22.109Z,60.80
2022-11-28T13:31:26.584Z,51.80
2022-11-28T13:34:16.294Z,47.80
2022-11-28T13:40:15.210Z,51.80
2022-11-28T13:43:14.649Z,49.80
2022-11-28T13:45:57.677Z,45.00
2022-11-28T13:49:12.481Z,44.00
2022-11-28T13:51:43.345Z,48.50
2022-11-28T13:54:26.072Z,48.50
2022-11-28T14:00:23.879Z,49.00
2022-11-28T14:03:19.501Z,48.90
2022-11-28T14:06:07.586Z,44.80
2022-11-28T14:09:16.849Z,49.40
2022-11-28T14:12:14.764Z,42.70
2022-11-28T14:15:06.581Z,46.80
2022-11-28T14:18:54.453Z,45.80
2022-11-28T14:21:33.485Z,46.20
2022-11-28T14:24:40.256Z,44.00
2022-11-28T14:27:30.490Z,39.30
2022-11-28T14:30:35.537Z,47.10
2022-11-28T14:33:37.412Z,46.70
2022-11-28T14:36:30.296Z,52.50
2022-11-28T14:39:16.587Z,46.90
2022-11-28T14:42:06.022Z,45.10
2022-11-28T14:44:54.719Z,51.60
2022-11-28T14:47:46.854Z,46.70
2022-11-28T14:50:29.869Z,49.00
2022-11-28T14:53:47.628Z,46.40
2022-11-28T14:56:30.668Z,50.70
2022-11-28T14:59:13.715Z,47.10
2022-11-28T15:01:59.604Z,46.40
2022-11-28T15:05:02.603Z,51.90
2022-11-28T15:08:19.666Z,51.30
2022-11-28T15:11:25.574Z,44.20
2022-11-28T15:14:16.717Z,50.30
2022-11-28T15:17:05.142Z,47.10
2022-11-28T15:19:49.853Z,47.00
2022-11-28T15:22:39.801Z,55.50
2022-11-28T15:25:27.860Z,50.10
2022-11-28T15:28:19.341Z,51.90
2022-11-28T15:31:06.004Z,55.60
2022-11-28T15:33:51.079Z,57.70
2022-11-28T15:36:34.199Z,49.20
2022-11-28T15:39:40.753Z,51.60
2022-11-28T15:42:29.408Z,52.20
2022-11-28T15:45:30.301Z,55.20
2022-11-28T15:48:27.144Z,52.90
2022-11-28T15:51:32.813Z,51.80
2022-11-28T15:54:34.139Z,49.90
2022-11-28T15:57:26.659Z,49.80
2022-11-28T16:00:18.393Z,52.50
2022-11-28T16:03:01.900Z,55.50
2022-11-28T16:05:47.259Z,62.30
2022-11-28T16:08:35.302Z,55.60
2022-11-28T16:11:21.128Z,60.60
2022-11-28T16:14:09.874Z,59.40
2022-11-28T16:16:53.152Z,61.30
2022-11-28T16:19:37.958Z,52.50
2022-11-28T16:22:27.272Z,54.40
2022-11-28T16:25:25.132Z,50.30
2022-11-28T16:28:30.371Z,54.50
2022-11-28T16:31:20.808Z,49.00
2022-11-28T16:34:05.996Z,59.40
2022-11-28T16:36:50.153Z,50.20
2022-11-28T16:39:36.537Z,57.50
2022-11-28T16:42:20.375Z,55.90
2022-11-28T16:45:32.651Z,54.80
2022-11-28T16:48:19.263Z,54.50
2022-11-28T16:51:02.012Z,57.40
2022-11-28T16:56:32.953Z,53.30
2022-11-28T16:59:18.685Z,49.70
2022-11-28T17:02:01.552Z,63.00
2022-11-28T17:07:27.978Z,55.80
2022-11-28T17:10:14.343Z,63.40
2022-11-28T17:12:57.674Z,59.30
2022-11-28T17:15:40.685Z,60.80
2022-11-28T17:18:23.417Z,63.50
2022-11-28T17:23:49.632Z,60.40
2022-11-28T17:26:32.563Z,58.30
2022-11-28T17:31:59.569Z,53.40
2022-11-28T17:34:43.166Z,56.40
2022-11-28T17:37:26.468Z,58.80
2022-11-28T17:40:28.303Z,54.20
2022-11-28T17:43:16.865Z,60.80
2022-11-28T17:45:59.714Z,59.30
2022-11-28T17:48:43.188Z,55.10
2022-11-28T17:51:28.249Z,55.90
2022-11-28T17:54:16.715Z,58.40
2022-11-28T17:56:59.606Z,54.60
2022-11-28T17:59:42.768Z,63.70
2022-11-28T18:02:26.362Z,55.70
2022-11-28T18:05:09.665Z,62.00
2022-11-28T18:07:52.748Z,58.70
2022-11-28T18:10:36.636Z,58.60
2022-11-28T18:13:19.495Z,60.40
2022-11-28T18:16:03.795Z,53.10
2022-11-28T18:18:47.120Z,53.70
2022-11-28T18:21:30.033Z,53.60
2022-11-28T18:24:13.071Z,54.50
2022-11-28T18:26:57.122Z,55.00
2022-11-28T18:32:22.928Z,56.70
2022-11-28T18:35:07.562Z,53.00
2022-11-28T18:37:50.592Z,53.00
2022-11-28T18:40:35.577Z,49.00
2022-11-28T18:43:18.948Z,57.00
2022-11-28T18:48:48.799Z,62.60
2022-11-28T18:51:34.788Z,59.30
2022-11-28T18:54:21.157Z,55.00
2022-11-28T18:57:07.829Z,50.80
2022-11-28T18:59:54.908Z,54.90
2022-11-28T19:02:38.210Z,54.80
2022-11-28T19:05:21.387Z,53.30
2022-11-28T19:08:04.454Z,51.40
2022-11-28T19:10:47.221Z,55.10
2022-11-28T19:13:31.210Z,52.50
2022-11-28T19:16:17.522Z,54.30
2022-11-28T19:19:01.974Z,52.20
2022-11-28T19:21:44.855Z,50.10
2022-11-28T19:24:28.892Z,50.20
2022-11-28T19:27:14.513Z,55.40
2022-11-28T19:29:58.410Z,51.90
2022-11-28T19:35:24.296Z,58.20
2022-11-28T19:38:07.362Z,52.90
2022-11-28T19:40:50.887Z,57.80
2022-11-28T19:43:34.998Z,53.80
2022-11-28T19:46:18.877Z,54.20
2022-11-28T19:49:01.968Z,49.40
2022-11-28T19:51:45.910Z,53.80
2022-11-28T19:54:28.715Z,53.10
2022-11-28T19:57:13.104Z,48.10
2022-11-28T19:59:56.441Z,54.20
2022-11-28T20:02:39.300Z,48.50
2022-11-28T20:05:22.151Z,57.70
2022-11-28T20:08:07.122Z,49.60
2022-11-28T20:10:50.231Z,48.70
2022-11-28T20:13:34.560Z,49.90
2022-11-28T20:16:18.200Z,54.80
2022-11-28T20:19:02.058Z,49.20
2022-11-28T20:21:46.560Z,50.40
2022-11-28T20:24:30.316Z,53.40
2022-11-28T20:27:13.303Z,52.30
2022-11-28T20:32:38.787Z,51.70
2022-11-28T20:38:07.588Z,49.50
2022-11-28T20:43:35.639Z,56.60
2022-11-28T20:46:21.713Z,50.10
2022-11-28T20:49:06.468Z,54.50
2022-11-28T20:51:50.402Z,49.80
2022-11-28T20:54:33.221Z,52.90
2022-11-28T20:57:23.198Z,51.50
2022-11-28T21:00:07.338Z,51.70
2022-11-28T21:02:51.119Z,52.30
2022-11-28T21:05:36.900Z,47.50
2022-11-28T21:08:19.869Z,48.40
2022-11-28T21:11:21.373Z,46.80
2022-11-28T21:14:15.613Z,51.20
2022-11-28T21:16:58.698Z,45.50
2022-11-28T21:19:41.853Z,44.60
2022-11-28T21:22:24.917Z,47.30
2022-11-28T21:27:50.355Z,46.60
2022-11-28T21:33:16.344Z,49.70
2022-11-28T21:38:51.021Z,51.20
2022-11-28T21:41:33.833Z,50.70
2022-11-28T21:44:16.823Z,59.90
2022-11-28T21:49:43.791Z,58.00
2022-11-28T21:52:27.128Z,56.10
2022-11-28T21:55:10.556Z,56.80
2022-11-28T22:00:53.342Z,50.50
2022-11-28T22:03:41.180Z,54.90
2022-11-28T22:06:26.138Z,56.20
2022-11-28T22:09:10.219Z,52.30
2022-11-28T22:11:54.652Z,56.40
2022-11-28T22:14:37.665Z,53.50
2022-11-28T22:17:20.438Z,56.60
2022-11-28T22:22:49.484Z,45.30
2022-11-28T22:25:32.429Z,44.90
2022-11-28T22:28:15.368Z,58.60
2022-11-28T22:33:41.080Z,41.80
2022-11-28T22:36:24.973Z,53.30
2022-11-28T22:39:11.576Z,48.10
2022-11-28T22:41:54.492Z,47.30
2022-11-28T22:44:37.368Z,50.50
2022-11-28T22:47:22.715Z,49.40
2022-11-28T22:50:06.505Z,50.00
2022-11-28T22:52:49.309Z,50.90
2022-11-28T22:55:34.900Z,48.20
2022-11-28T22:58:18.939Z,46.20
2022-11-28T23:01:06.303Z,43.50
2022-11-28T23:03:49.247Z,45.00
2022-11-28T23:06:35.052Z,47.90
2022-11-28T23:09:18.212Z,48.20
2022-11-28T23:17:28.128Z,46.80
2022-11-28T23:22:53.919Z,44.70
2022-11-28T23:28:19.487Z,45.90
2022-11-28T23:31:13.435Z,46.20
2022-11-28T23:33:57.651Z,44.40
2022-11-28T23:36:43.452Z,45.80
2022-11-28T23:39:27.099Z,48.90
2022-11-28T23:42:18.507Z,43.40
2022-11-28T23:47:44.142Z,45.10
2022-11-28T23:55:53.028Z,38.80
